Time;durP1;ratioP1;P1;durP2;ratioP2;P2;SDS_P1;SDS_P2;PMS_P1;PMS_P2;Temp;Humidity;BMP_temperature;BMP_pressure;BME280_temperature;BME280_humidity;BME280_pressure;Samples;Min_cycle;Max_cycle;Signal;HPM_P1;HPM_P2
2021/12/21 00:01:23;;;;;;;7.63;3.90;;;;;;;0.94;64.78;100271.16;5070035;28;20036;-21
2021/12/21 00:03:48;;;;;;;7.65;3.70;;;;;;;0.93;64.95;100264.28;5070161;28;20484;-20
2021/12/21 00:06:14;;;;;;;6.97;3.80;;;;;;;0.98;64.33;100264.63;5070146;28;20028;-21
2021/12/21 00:08:39;;;;;;;9.02;4.32;;;;;;;0.79;64.50;100269.06;5069592;28;20094;-20
2021/12/21 00:11:05;;;;;;;8.98;3.85;;;;;;;0.84;64.73;100259.91;5069844;28;20503;-21
2021/12/21 00:21:31;;;;;;;6.75;3.55;;;;;;;0.64;65.17;100288.97;5069741;28;20044;-20
2021/12/21 00:23:52;;;;;;;9.27;3.53;;;;;;;0.55;63.48;100266.22;5068332;28;20074;-20
2021/12/21 00:26:20;;;;;;;6.88;3.67;;;;;;;0.67;63.63;100269.44;5069574;28;20037;-21
2021/12/21 00:31:11;;;;;;;7.38;3.72;;;;;;;0.87;62.70;100301.66;5069667;28;20047;-20
2021/12/21 00:33:39;;;;;;;5.65;3.42;;;;;;;0.81;62.84;100287.31;5068909;28;20163;-20
2021/12/21 00:36:06;;;;;;;8.70;4.80;;;;;;;0.83;62.94;100293.22;5069278;28;20040;-20
2021/12/21 00:38:31;;;;;;;6.68;3.70;;;;;;;0.80;62.88;100294.38;5069257;28;20036;-21
2021/12/21 00:40:57;;;;;;;8.27;3.63;;;;;;;0.86;63.01;100299.97;5051305;28;20035;-21
2021/12/21 00:43:22;;;;;;;5.90;3.92;;;;;;;0.85;62.75;100298.34;5069130;28;20082;-21
2021/12/21 00:45:47;;;;;;;8.02;3.90;;;;;;;0.97;62.66;100305.03;5068871;28;20028;-21
2021/12/21 00:48:15;;;;;;;6.25;4.03;;;;;;;1.04;62.62;100318.38;5069055;28;20059;-21
2021/12/21 00:50:41;;;;;;;7.63;3.60;;;;;;;1.11;61.81;100315.00;5069268;28;20067;-20
2021/12/21 00:53:07;;;;;;;6.97;3.88;;;;;;;1.15;61.19;100300.56;5069075;28;20275;-20
2021/12/21 00:55:32;;;;;;;7.82;3.53;;;;;;;1.23;61.54;100312.09;5050587;28;20040;-21
2021/12/21 00:57:58;;;;;;;5.78;3.58;;;;;;;1.13;61.66;100312.22;5069053;28;20090;-21
2021/12/21 01:00:23;;;;;;;6.80;3.63;;;;;;;1.16;62.17;100304.84;5068849;28;20033;-21
2021/12/21 01:02:49;;;;;;;6.32;3.20;;;;;;;0.84;62.09;100291.44;5068950;28;20039;-21
2021/12/21 01:05:29;;;;;;;5.53;3.53;;;;;;;0.87;63.08;100322.66;5068260;28;20515;-21
2021/12/21 01:07:57;;;;;;;5.93;4.13;;;;;;;0.98;62.97;100325.03;5052687;28;20033;-21
2021/12/21 01:16:02;;;;;;;6.93;3.40;;;;;;;0.86;62.54;100310.47;5068512;28;20086;-20
2021/12/21 01:18:36;;;;;;;6.20;3.15;;;;;;;0.80;63.00;100312.75;5055318;28;20067;-20
2021/12/21 01:21:14;;;;;;;7.32;3.38;;;;;;;0.79;62.56;100320.75;5050564;28;20097;-20
2021/12/21 01:24:11;;;;;;;6.00;3.20;;;;;;;0.90;62.53;100323.19;5068173;28;20024;-21
2021/12/21 01:29:38;;;;;;;9.38;3.72;;;;;;;0.74;63.24;100323.84;5068107;28;20102;-21
2021/12/21 01:50:28;;;;;;;24.85;8.93;;;;;;;0.44;63.43;100322.38;5067835;28;20089;-21
2021/12/21 01:52:54;;;;;;;14.73;7.13;;;;;;;0.42;62.97;100326.13;5049574;28;20458;-21
2021/12/21 01:55:19;;;;;;;12.63;6.43;;;;;;;0.35;63.30;100325.88;5068008;28;20031;-21
2021/12/21 01:57:45;;;;;;;10.00;5.63;;;;;;;0.34;63.64;100326.84;5067673;28;20729;-21
2021/12/21 02:00:11;;;;;;;8.65;4.38;;;;;;;0.33;63.01;100328.66;5067881;28;20036;-21
2021/12/21 02:02:36;;;;;;;7.32;3.90;;;;;;;0.25;62.90;100322.47;5068079;28;20078;-20
2021/12/21 02:05:02;;;;;;;5.82;3.40;;;;;;;0.11;62.59;100300.19;5067770;28;20111;-21
2021/12/21 02:07:27;;;;;;;6.88;3.53;;;;;;;0.26;62.45;100309.19;5049238;28;20036;-21
2021/12/21 02:09:53;;;;;;;6.20;3.17;;;;;;;0.33;61.88;100320.78;5049554;28;20090;-21
2021/12/21 02:12:19;;;;;;;5.95;3.50;;;;;;;0.32;61.45;100315.66;5067510;28;20067;-20
2021/12/21 02:14:55;;;;;;;5.57;3.03;;;;;;;0.34;61.97;100317.16;5067399;28;20506;-21
2021/12/21 02:22:47;;;;;;;5.45;2.90;;;;;;;0.17;61.43;100289.91;5067572;28;20476;-20
2021/12/21 02:27:57;;;;;;;6.60;3.08;;;;;;;0.20;61.67;100280.94;5067456;28;20036;-21
2021/12/21 02:30:23;;;;;;;5.63;3.22;;;;;;;0.43;61.69;100331.22;5067688;28;20048;-21
2021/12/21 02:32:48;;;;;;;5.03;2.92;;;;;;;0.46;61.73;100330.91;5049327;28;20032;-20
2021/12/21 02:35:14;;;;;;;6.45;3.60;;;;;;;0.53;61.33;100337.25;5067364;28;20090;-21
2021/12/21 02:37:39;;;;;;;8.38;4.63;;;;;;;0.59;60.98;100331.41;5066823;28;20111;-20
2021/12/21 02:40:07;;;;;;;6.13;3.10;;;;;;;0.48;60.78;100313.22;5070570;28;20024;-21
2021/12/21 02:42:32;;;;;;;6.80;3.72;;;;;;;0.55;59.93;100323.94;5071387;28;20103;-21
2021/12/21 02:44:58;;;;;;;5.97;2.88;;;;;;;0.50;60.73;100326.19;5053755;28;20569;-21
2021/12/21 02:47:23;;;;;;;6.03;3.42;;;;;;;0.53;60.83;100320.66;5071126;28;20028;-21
2021/12/21 02:49:49;;;;;;;4.72;2.80;;;;;;;0.54;60.35;100338.06;5071259;28;20043;-21
2021/12/21 02:52:14;;;;;;;6.25;2.55;;;;;;;0.46;60.14;100325.66;5071288;28;20519;-20
2021/12/21 02:54:40;;;;;;;6.30;3.35;;;;;;;0.48;60.93;100328.16;5071871;28;20040;-20
2021/12/21 02:57:05;;;;;;;7.55;3.63;;;;;;;0.32;60.26;100292.88;5071573;28;20029;-20
2021/12/21 02:59:31;;;;;;;7.05;2.75;;;;;;;0.55;60.36;100326.56;5052841;28;20033;-20
2021/12/21 03:01:56;;;;;;;5.18;3.00;;;;;;;0.55;60.32;100323.94;5071271;28;20032;-21
2021/12/21 03:04:22;;;;;;;6.47;2.95;;;;;;;0.45;60.21;100303.03;5070918;28;20041;-20
2021/12/21 03:10:03;;;;;;;9.77;3.55;;;;;;;0.42;60.66;100313.00;5071041;28;20040;-21
2021/12/21 03:14:36;;;;;;;4.70;2.53;;;;;;;0.44;61.03;100326.78;5070870;28;20032;-21
2021/12/21 03:17:02;;;;;;;5.78;2.78;;;;;;;0.49;61.05;100320.13;5070762;28;20416;-21
2021/12/21 03:19:27;;;;;;;6.70;3.00;;;;;;;0.42;61.27;100334.81;5070266;28;20117;-21
2021/12/21 03:21:55;;;;;;;4.45;2.22;;;;;;;0.54;61.66;100338.06;5070779;28;20488;-21
2021/12/21 03:24:21;;;;;;;7.80;3.20;;;;;;;0.46;61.45;100319.59;5070731;28;20039;-21
2021/12/21 03:26:46;;;;;;;5.50;2.28;;;;;;;0.61;61.66;100349.59;5070685;28;20059;-21
2021/12/21 03:29:12;;;;;;;6.50;2.97;;;;;;;0.60;62.04;100326.97;5070322;28;20110;-21
2021/12/21 03:31:37;;;;;;;4.70;2.38;;;;;;;0.77;61.09;100346.34;5070342;28;20028;-21
2021/12/21 03:34:03;;;;;;;6.07;2.97;;;;;;;0.71;61.70;100333.81;5070300;28;20495;-21
2021/12/21 03:36:28;;;;;;;6.75;3.10;;;;;;;0.94;61.52;100347.31;5070271;28;20090;-21
2021/12/21 03:39:27;;;;;;;5.75;2.50;;;;;;;0.83;61.44;100342.28;5070646;28;20040;-20
2021/12/21 03:41:48;;;;;;;7.35;3.25;;;;;;;0.94;61.62;100352.56;5066972;28;20040;-20
2021/12/21 03:44:15;;;;;;;6.25;2.65;;;;;;;0.91;61.43;100345.00;5070299;28;20404;-20
2021/12/21 03:46:49;;;;;;;4.88;2.72;;;;;;;0.97;60.99;100355.72;5052686;28;20064;-21
2021/12/21 03:51:58;;;;;;;5.53;2.65;;;;;;;1.03;61.00;100348.25;5070212;28;20032;-21
2021/12/21 03:54:24;;;;;;;5.65;3.00;;;;;;;0.95;61.25;100351.59;5070138;28;20033;-21
2021/12/21 03:56:51;;;;;;;6.55;2.72;;;;;;;0.92;60.76;100357.16;5070158;28;20029;-21
2021/12/21 03:59:17;;;;;;;6.20;3.22;;;;;;;1.05;60.90;100362.06;5052350;28;20036;-20
2021/12/21 04:01:42;;;;;;;7.22;3.10;;;;;;;1.04;60.98;100342.81;5069602;28;20549;-21
2021/12/21 04:04:08;;;;;;;6.45;3.28;;;;;;;1.12;61.15;100370.97;5069790;28;20028;-20
2021/12/21 04:06:34;;;;;;;5.15;2.78;;;;;;;1.06;60.62;100346.13;5069862;28;20039;-21
2021/12/21 04:09:00;;;;;;;5.05;3.17;;;;;;;1.13;61.20;100352.44;5069676;28;20037;-20
2021/12/21 04:11:26;;;;;;;5.07;3.30;;;;;;;1.20;61.28;100371.84;5069516;28;20052;-21
2021/12/21 04:13:51;;;;;;;6.40;3.38;;;;;;;1.28;61.00;100378.19;5070052;28;20029;-20
2021/12/21 04:16:17;;;;;;;6.03;3.10;;;;;;;1.41;60.98;100368.13;5069790;28;20036;-20
2021/12/21 04:18:42;;;;;;;6.75;3.45;;;;;;;1.23;61.66;100364.66;5069837;28;20032;-21
2021/12/21 04:21:14;;;;;;;7.55;3.33;;;;;;;1.06;61.23;100348.75;5051580;28;20029;-21
2021/12/21 04:23:40;;;;;;;5.65;3.50;;;;;;;1.15;61.55;100371.50;5069455;28;20028;-21
2021/12/21 04:26:10;;;;;;;6.07;3.30;;;;;;;1.09;61.32;100368.66;5069803;28;20098;-20
2021/12/21 04:28:35;;;;;;;6.38;3.42;;;;;;;0.93;61.29;100369.31;5069524;28;20098;-21
2021/12/21 04:31:01;;;;;;;5.85;2.88;;;;;;;0.85;61.31;100367.41;5069630;28;20082;-21
2021/12/21 04:33:26;;;;;;;5.63;2.80;;;;;;;0.88;61.25;100361.88;5069293;28;20039;-20
2021/12/21 04:35:52;;;;;;;7.93;4.25;;;;;;;0.94;60.80;100381.47;5051356;28;20039;-20
2021/12/21 04:38:22;;;;;;;6.07;3.45;;;;;;;0.90;60.78;100365.19;5069367;28;20033;-21
2021/12/21 04:40:56;;;;;;;5.70;2.85;;;;;;;0.93;61.24;100385.06;5069114;28;20849;-21
2021/12/21 04:43:21;;;;;;;6.25;3.47;;;;;;;0.78;61.07;100356.69;5069190;28;20028;-20
2021/12/21 04:45:47;;;;;;;5.88;3.25;;;;;;;0.98;61.49;100398.56;5068894;28;20039;-20
2021/12/21 04:48:12;;;;;;;6.40;2.78;;;;;;;0.91;60.99;100392.28;5069222;28;20047;-20
2021/12/21 04:50:38;;;;;;;6.93;3.97;;;;;;;0.86;60.90;100392.72;5067730;28;20564;-21
2021/12/21 04:53:03;;;;;;;8.90;4.15;;;;;;;0.88;61.70;100406.53;5068969;28;20032;-21
2021/12/21 04:55:29;;;;;;;6.50;3.05;;;;;;;0.77;61.39;100418.03;5068927;28;20085;-20
2021/12/21 04:57:56;;;;;;;7.13;3.33;;;;;;;0.88;61.55;100421.44;5051476;28;20040;-21
2021/12/21 05:00:22;;;;;;;5.38;2.88;;;;;;;0.90;60.81;100430.84;5068632;28;20067;-20
2021/12/21 05:02:47;;;;;;;6.38;3.03;;;;;;;0.90;61.09;100427.38;5067835;28;20060;-20
2021/12/21 05:05:13;;;;;;;8.60;3.20;;;;;;;0.85;61.58;100437.50;5068557;28;20048;-21
2021/12/21 05:07:40;;;;;;;6.38;3.72;;;;;;;0.78;61.22;100409.22;5068642;28;20817;-21
2021/12/21 05:10:08;;;;;;;6.38;3.83;;;;;;;0.85;61.65;100437.50;5068541;28;20393;-20
2021/12/21 05:12:36;;;;;;;8.40;3.88;;;;;;;0.88;61.24;100432.78;5068529;28;20048;-21
2021/12/21 05:15:01;;;;;;;6.32;2.83;;;;;;;0.92;61.05;100446.44;5068630;28;20098;-20
2021/12/21 05:17:27;;;;;;;7.18;4.32;;;;;;;0.92;61.31;100436.78;5068258;28;20036;-21
2021/12/21 05:19:52;;;;;;;7.72;4.07;;;;;;;0.90;61.84;100435.25;5068390;28;20040;-21
2021/12/21 05:22:18;;;;;;;7.75;3.67;;;;;;;0.97;61.37;100445.03;5068309;28;20043;-21
2021/12/21 05:24:43;;;;;;;7.00;3.92;;;;;;;0.91;61.57;100439.53;5068636;28;20032;-21
2021/12/21 05:27:09;;;;;;;5.75;3.20;;;;;;;0.67;61.16;100425.13;5068384;28;20040;-20
2021/12/21 05:29:35;;;;;;;18.33;8.65;;;;;;;0.58;61.50;100418.16;5067600;28;20060;-21
2021/12/21 05:32:00;;;;;;;8.13;4.43;;;;;;;0.76;61.56;100441.84;5068237;28;20056;-21
2021/12/21 05:34:27;;;;;;;13.32;7.93;;;;;;;0.88;61.52;100460.81;5068127;28;20044;-21
2021/12/21 05:36:52;;;;;;;6.90;4.57;;;;;;;0.93;60.60;100458.59;5067892;28;20028;-21
2021/12/21 05:39:22;;;;;;;5.47;3.25;;;;;;;0.78;60.76;100435.47;5068171;28;20495;-20
2021/12/21 05:44:16;;;;;;;8.07;3.85;;;;;;;0.95;60.20;100446.97;5067955;28;20074;-21
2021/12/21 05:46:42;;;;;;;5.97;3.13;;;;;;;1.05;59.96;100469.72;5068665;28;20536;-20
2021/12/21 05:49:07;;;;;;;6.78;3.08;;;;;;;0.97;59.07;100449.44;5067839;28;20036;-20
2021/12/21 05:51:33;;;;;;;7.18;3.00;;;;;;;0.99;59.21;100460.63;5067439;28;20094;-20
2021/12/21 05:53:58;;;;;;;7.07;3.58;;;;;;;1.12;60.03;100474.22;5067788;28;20036;-21
2021/12/21 05:56:24;;;;;;;6.68;3.35;;;;;;;1.20;59.74;100482.19;5068350;28;20036;-20
2021/12/21 05:58:49;;;;;;;6.57;4.20;;;;;;;1.19;59.17;100477.94;5067690;28;20458;-21
2021/12/21 06:01:15;;;;;;;6.43;4.00;;;;;;;1.22;59.28;100471.56;5067793;28;20040;-20
2021/12/21 06:03:40;;;;;;;6.38;2.97;;;;;;;1.26;58.75;100495.72;5067812;28;20024;-20
2021/12/21 06:06:11;;;;;;;5.35;2.80;;;;;;;1.11;59.21;100475.22;5067878;28;20487;-21
2021/12/21 06:08:37;;;;;;;5.30;2.90;;;;;;;1.32;58.95;100498.59;5050732;28;20029;-21
2021/12/21 06:11:06;;;;;;;5.38;2.55;;;;;;;1.24;59.07;100492.44;5067819;28;20086;-21
2021/12/21 06:14:04;;;;;;;5.28;3.05;;;;;;;1.30;58.85;100502.34;5067126;28;20111;-21
2021/12/21 06:27:03;;;;;;;6.90;3.38;;;;;;;1.47;58.42;100519.97;5067511;28;20040;-20
2021/12/21 06:29:29;;;;;;;5.93;2.83;;;;;;;1.49;57.46;100531.16;5067155;28;20424;-21
2021/12/21 06:31:55;;;;;;;4.40;1.85;;;;;;;1.49;57.49;100533.78;5067394;28;20024;-20
2021/12/21 06:34:20;;;;;;;5.60;2.90;;;;;;;1.43;57.89;100509.88;5067204;28;20032;-20
2021/12/21 06:36:46;;;;;;;4.35;2.20;;;;;;;1.62;57.81;100538.66;5067477;28;20129;-21
2021/12/21 06:39:12;;;;;;;4.80;2.53;;;;;;;1.68;57.79;100537.25;5067387;28;20067;-21
2021/12/21 06:41:38;;;;;;;11.90;6.47;;;;;;;1.88;57.76;100540.53;5067435;28;20024;-21
2021/12/21 06:44:04;;;;;;;12.32;6.18;;;;;;;1.90;56.59;100541.22;5067494;28;20119;-20
2021/12/21 06:47:03;;;;;;;19.95;9.25;;;;;;;1.91;56.74;100542.88;5067050;28;20021;-21
2021/12/21 06:52:13;;;;;;;6.07;2.83;;;;;;;1.96;56.23;100546.72;5067270;28;20116;-21
2021/12/21 06:54:38;;;;;;;11.57;4.50;;;;;;;2.09;56.23;100540.25;5067410;28;20632;-20
2021/12/21 06:57:04;;;;;;;8.63;2.78;;;;;;;1.91;55.00;100509.50;5067087;28;20032;-20
2021/12/21 06:59:30;;;;;;;6.28;2.40;;;;;;;2.18;56.05;100547.22;5066967;28;20020;-20
2021/12/21 07:01:56;;;;;;;5.38;2.13;;;;;;;2.27;55.39;100551.56;5067551;28;20101;-20
2021/12/21 07:04:21;;;;;;;12.65;4.75;;;;;;;2.37;54.37;100552.31;5067268;28;20036;-21
2021/12/21 07:06:47;;;;;;;5.40;2.40;;;;;;;2.31;54.68;100550.28;5067562;28;20039;-21
2021/12/21 07:09:29;;;;;;;4.88;2.35;;;;;;;2.46;53.79;100571.63;5049480;28;20411;-21
2021/12/21 07:12:19;;;;;;;7.15;3.20;;;;;;;2.45;54.05;100569.94;5067056;28;20033;-21
2021/12/21 07:20:19;;;;;;;4.78;2.50;;;;;;;2.75;52.79;100562.59;5043326;28;20526;-21
2021/12/21 07:22:44;;;;;;;6.13;2.88;;;;;;;3.00;53.55;100568.81;5066930;28;20024;-21
2021/12/21 07:25:10;;;;;;;6.15;3.03;;;;;;;2.98;52.07;100583.94;5068410;28;20038;-20
2021/12/21 07:27:35;;;;;;;6.05;2.47;;;;;;;2.83;52.73;100565.25;5070370;28;20051;-20
2021/12/21 07:30:01;;;;;;;5.22;2.60;;;;;;;2.81;52.32;100568.03;5070642;28;20517;-20
2021/12/21 07:32:26;;;;;;;5.20;2.97;;;;;;;2.88;52.25;100573.53;5070336;28;20094;-21
2021/12/21 07:34:52;;;;;;;4.20;2.72;;;;;;;2.93;51.85;100565.16;5070475;28;20043;-20
2021/12/21 07:37:18;;;;;;;5.18;3.00;;;;;;;2.80;52.06;100561.13;5070519;28;20032;-21
2021/12/21 07:39:44;;;;;;;6.40;3.25;;;;;;;2.92;52.82;100580.16;5070288;28;20462;-21
2021/12/21 07:42:09;;;;;;;3.22;1.92;;;;;;;2.95;52.83;100590.34;5070495;28;20032;-21
2021/12/21 07:44:35;;;;;;;4.85;2.88;;;;;;;2.96;52.68;100593.81;5070423;28;20476;-21
2021/12/21 07:47:00;;;;;;;4.85;2.33;;;;;;;3.06;52.81;100591.88;5070673;28;20020;-20
2021/12/21 07:49:26;;;;;;;5.95;2.22;;;;;;;3.01;52.13;100588.91;5070171;28;20032;-20
2021/12/21 07:51:51;;;;;;;6.40;3.40;;;;;;;2.98;53.22;100570.78;5070379;28;20025;-20
2021/12/21 07:54:18;;;;;;;5.38;2.80;;;;;;;2.77;52.21;100579.88;5069927;28;20040;-20
2021/12/21 07:56:44;;;;;;;4.28;2.17;;;;;;;2.91;52.19;100588.19;5070108;28;20046;-20
2021/12/21 07:59:11;;;;;;;4.38;2.50;;;;;;;2.97;52.47;100609.47;5070460;28;20446;-21
2021/12/21 08:01:37;;;;;;;3.85;2.03;;;;;;;2.93;52.28;100602.03;5069680;28;20035;-20
2021/12/21 08:04:03;;;;;;;3.97;2.17;;;;;;;3.10;52.70;100610.84;5052047;28;20086;-20
2021/12/21 08:06:32;;;;;;;8.20;3.72;;;;;;;3.05;51.94;100616.59;5069771;28;20036;-20
2021/12/21 08:08:57;;;;;;;4.80;2.10;;;;;;;2.99;51.52;100617.22;5069705;28;20036;-21
2021/12/21 08:13:54;;;;;;;3.83;2.00;;;;;;;3.25;51.51;100617.22;5069798;28;20040;-20
2021/12/21 08:16:20;;;;;;;4.60;2.58;;;;;;;3.42;51.79;100633.91;5069651;28;20051;-20
2021/12/21 08:18:45;;;;;;;5.35;2.50;;;;;;;3.43;50.85;100625.00;5069948;28;20028;-21
2021/12/21 08:21:13;;;;;;;5.68;3.10;;;;;;;3.43;51.70;100630.28;5069677;28;20047;-20
2021/12/21 08:23:38;;;;;;;4.05;2.17;;;;;;;3.05;51.12;100648.22;5069500;28;20031;-20
2021/12/21 08:26:05;;;;;;;7.53;3.00;;;;;;;3.30;52.09;100640.44;5069415;28;20040;-20
2021/12/21 08:28:31;;;;;;;3.78;1.90;;;;;;;3.19;51.05;100607.28;5069024;28;20048;-21
2021/12/21 08:30:56;;;;;;;5.03;2.00;;;;;;;3.15;50.89;100633.13;5069570;28;20097;-20
2021/12/21 08:33:22;;;;;;;4.53;2.63;;;;;;;3.40;51.20;100641.97;5069353;28;20071;-20
2021/12/21 08:35:47;;;;;;;4.45;2.30;;;;;;;3.41;51.32;100646.28;5069026;28;20033;-20
2021/12/21 08:38:16;;;;;;;5.13;2.40;;;;;;;3.46;49.75;100640.53;5069580;28;20032;-22
2021/12/21 08:40:42;;;;;;;5.53;2.58;;;;;;;3.47;51.48;100621.06;5069264;28;20038;-20
2021/12/21 08:43:11;;;;;;;4.70;2.50;;;;;;;3.74;50.10;100621.81;5068950;28;20119;-20
2021/12/21 08:45:38;;;;;;;4.90;2.53;;;;;;;3.77;49.58;100639.97;5069075;28;20024;-20
2021/12/21 08:48:05;;;;;;;6.45;2.47;;;;;;;3.91;49.34;100644.63;5069218;28;20040;-21
2021/12/21 08:50:30;;;;;;;2.30;1.63;;;;;;;3.81;48.97;100654.50;5068858;28;20123;-21
2021/12/21 08:52:57;;;;;;;3.97;2.22;;;;;;;3.88;48.27;100644.94;5069022;28;20111;-20
2021/12/21 08:55:22;;;;;;;3.63;1.92;;;;;;;4.28;49.61;100646.03;5069198;28;20052;-21
2021/12/21 08:57:48;;;;;;;3.15;2.10;;;;;;;4.35;48.44;100646.19;5068637;28;20048;-21
2021/12/21 09:00:13;;;;;;;4.88;2.17;;;;;;;3.86;48.19;100615.25;5069031;28;20036;-21
2021/12/21 09:02:39;;;;;;;3.92;2.15;;;;;;;3.99;48.68;100663.13;5068742;28;20474;-21
2021/12/21 09:05:10;;;;;;;5.82;1.85;;;;;;;3.89;48.42;100641.34;5068780;28;20020;-20
2021/12/21 09:07:36;;;;;;;2.85;1.60;;;;;;;4.01;48.89;100665.63;5068788;28;20032;-21
2021/12/21 09:10:02;;;;;;;3.30;2.10;;;;;;;4.27;48.26;100657.59;5068880;28;20737;-20
2021/12/21 09:12:28;;;;;;;3.03;1.77;;;;;;;4.44;47.00;100645.22;5068545;28;20109;-20
2021/12/21 09:14:53;;;;;;;4.95;2.65;;;;;;;4.36;48.40;100656.59;5068637;28;20032;-20
2021/12/21 09:17:19;;;;;;;4.85;2.22;;;;;;;4.33;47.63;100646.38;5068655;28;20043;-20
2021/12/21 09:19:44;;;;;;;4.43;2.30;;;;;;;4.29;47.50;100629.22;5068298;28;20458;-20
2021/12/21 09:22:10;;;;;;;3.95;2.58;;;;;;;4.28;47.87;100645.22;5068570;28;20028;-21
2021/12/21 09:24:35;;;;;;;6.85;3.35;;;;;;;4.38;48.46;100646.69;5068579;28;20024;-20
2021/12/21 09:27:01;;;;;;;4.43;1.85;;;;;;;4.38;46.80;100649.34;5068510;28;20048;-21
2021/12/21 09:29:26;;;;;;;4.70;2.13;;;;;;;4.50;46.85;100641.91;5067669;28;20065;-22
2021/12/21 09:31:51;;;;;;;4.63;1.92;;;;;;;4.40;46.50;100597.19;5068318;28;20029;-20
2021/12/21 09:34:17;;;;;;;3.30;2.10;;;;;;;5.00;46.85;100619.72;5068081;28;20085;-20
2021/12/21 09:36:42;;;;;;;3.45;2.10;;;;;;;5.07;46.33;100641.03;5068240;28;20377;-20
2021/12/21 09:39:09;;;;;;;5.07;2.13;;;;;;;4.90;44.98;100631.47;5068112;28;20060;-21
2021/12/21 09:41:35;;;;;;;5.05;2.63;;;;;;;4.75;46.88;100636.63;5068031;28;20029;-20
2021/12/21 09:44:01;;;;;;;8.07;3.00;;;;;;;5.12;46.54;100617.53;5050375;28;20033;-22
2021/12/21 09:46:26;;;;;;;4.13;2.08;;;;;;;5.27;44.42;100638.84;5068456;28;20032;-21
2021/12/21 09:48:52;;;;;;;5.53;2.33;;;;;;;5.34;44.91;100628.41;5067594;28;20037;-21
2021/12/21 09:51:17;;;;;;;3.67;2.00;;;;;;;5.00;43.60;100637.41;5068141;28;20028;-21
2021/12/21 09:53:43;;;;;;;2.92;1.75;;;;;;;5.31;44.74;100634.03;5067857;28;20024;-20
2021/12/21 09:56:08;;;;;;;4.07;1.77;;;;;;;5.52;44.12;100630.81;5067810;28;20115;-21
2021/12/21 09:58:34;;;;;;;3.30;1.83;;;;;;;5.43;44.85;100630.84;5067704;28;20032;-20
2021/12/21 10:00:59;;;;;;;3.08;1.80;;;;;;;5.33;43.34;100634.66;5067667;28;20043;-20
2021/12/21 10:03:25;;;;;;;2.85;1.60;;;;;;;5.00;42.56;100634.75;5049501;28;20103;-21
2021/12/21 10:06:03;;;;;;;4.40;1.60;;;;;;;4.97;44.24;100648.31;5049619;28;20028;-21
2021/12/21 10:08:30;;;;;;;4.78;2.28;;;;;;;4.56;44.61;100628.06;5067856;28;20036;-20
2021/12/21 10:10:55;;;;;;;2.97;1.60;;;;;;;4.59;44.78;100653.31;5067956;28;20914;-20
2021/12/21 10:13:22;;;;;;;4.20;1.77;;;;;;;4.32;45.21;100625.41;5067815;28;20020;-20
2021/12/21 10:15:52;;;;;;;4.32;2.10;;;;;;;4.59;44.63;100624.25;5067610;28;20117;-21
2021/12/21 10:18:34;;;;;;;5.55;2.25;;;;;;;4.33;43.98;100646.38;5049876;28;20036;-21
2021/12/21 10:21:01;;;;;;;2.85;1.48;;;;;;;4.31;44.30;100640.44;5067333;28;20040;-20
2021/12/21 10:23:35;;;;;;;2.78;1.45;;;;;;;4.61;43.74;100635.47;5067727;28;20101;-20
2021/12/21 10:26:31;;;;;;;2.63;1.67;;;;;;;4.86;43.13;100607.19;5067660;28;20073;-20
2021/12/21 10:29:02;;;;;;;3.30;1.80;;;;;;;5.39;43.61;100612.84;5049517;28;20127;-20
2021/12/21 10:31:29;;;;;;;2.90;1.60;;;;;;;5.75;42.36;100628.22;5067091;28;20111;-21
2021/12/21 10:33:56;;;;;;;2.72;1.35;;;;;;;5.70;41.80;100630.56;5067602;28;20068;-21
2021/12/21 10:36:24;;;;;;;3.92;2.05;;;;;;;5.88;42.55;100631.13;5067416;28;20060;-20
2021/12/21 10:38:57;;;;;;;3.03;1.60;;;;;;;5.92;41.69;100628.94;5067512;28;20025;-20
2021/12/21 10:41:38;;;;;;;5.93;2.17;;;;;;;5.96;41.88;100628.44;5067733;28;20041;-21
2021/12/21 10:44:08;;;;;;;4.30;2.08;;;;;;;6.34;42.15;100620.59;5067363;28;20029;-20
2021/12/21 10:46:38;;;;;;;4.97;2.20;;;;;;;6.14;40.10;100630.00;5067743;28;20021;-20
2021/12/21 10:49:15;;;;;;;2.58;1.33;;;;;;;5.67;39.59;100628.25;5067298;28;20040;-21
2021/12/21 10:52:04;;;;;;;3.08;1.92;;;;;;;5.47;41.15;100614.63;5066997;28;20403;-20
2021/12/21 10:54:31;;;;;;;7.93;3.03;;;;;;;5.60;39.69;100594.56;5067309;28;20067;-20
2021/12/21 10:57:06;;;;;;;5.18;2.38;;;;;;;6.16;40.21;100614.78;5067307;28;20064;-20
2021/12/21 10:59:35;;;;;;;5.07;2.47;;;;;;;5.95;40.72;100600.34;5067497;28;20090;-21
2021/12/21 11:02:16;;;;;;;3.83;2.13;;;;;;;6.09;39.96;100576.75;5071066;28;20484;-20
2021/12/21 11:04:43;;;;;;;4.07;2.00;;;;;;;6.53;39.08;100615.81;5071068;28;20028;-20
2021/12/21 11:07:26;;;;;;;2.58;1.63;;;;;;;7.14;38.57;100621.84;5053233;28;20551;-20
2021/12/21 11:09:55;;;;;;;3.17;1.80;;;;;;;7.10;37.34;100623.22;5070875;28;20115;-20
2021/12/21 11:12:20;;;;;;;4.65;2.03;;;;;;;6.93;39.74;100613.78;5070906;28;20578;-20
2021/12/21 11:14:46;;;;;;;10.98;3.55;;;;;;;6.54;39.92;100622.75;5070813;28;20028;-20
2021/12/21 11:17:11;;;;;;;3.50;1.70;;;;;;;7.04;39.27;100597.41;5070862;28;20036;-20
2021/12/21 11:19:37;;;;;;;9.73;3.10;;;;;;;7.37;38.06;100613.78;5070915;28;20032;-20
2021/12/21 11:22:02;;;;;;;4.95;2.63;;;;;;;6.91;38.04;100613.97;5070812;28;20021;-21
2021/12/21 11:24:29;;;;;;;8.70;3.53;;;;;;;7.29;39.48;100597.13;5070887;28;20029;-21
2021/12/21 11:26:54;;;;;;;2.97;1.52;;;;;;;6.89;37.41;100615.16;5052717;28;20048;-21
2021/12/21 11:29:20;;;;;;;2.55;1.80;;;;;;;7.57;38.12;100587.50;5070622;28;20057;-20
2021/12/21 11:31:51;;;;;;;4.47;2.33;;;;;;;8.09;37.56;100595.38;5070570;28;20025;-21
2021/12/21 11:34:20;;;;;;;3.70;2.38;;;;;;;7.96;37.21;100598.75;5070179;28;20036;-21
2021/12/21 11:39:32;;;;;;;4.57;1.73;;;;;;;7.29;37.02;100599.78;5070458;28;20515;-21
2021/12/21 11:41:58;;;;;;;2.85;1.60;;;;;;;7.43;37.85;100585.69;5070650;28;20028;-21
2021/12/21 11:44:55;;;;;;;16.25;5.78;;;;;;;8.32;37.18;100606.66;5053221;28;20476;-21
2021/12/21 11:47:47;;;;;;;2.20;1.30;;;;;;;7.87;37.27;100613.13;5031059;28;20043;-21
2021/12/21 11:50:13;;;;;;;4.20;2.13;;;;;;;7.22;38.49;100629.72;5025866;28;20047;-20
2021/12/21 11:52:44;;;;;;;3.50;2.05;;;;;;;5.95;42.36;100604.81;5070269;28;20028;-20
2021/12/21 11:55:10;;;;;;;5.90;3.50;;;;;;;6.58;40.22;100579.81;5070144;28;20579;-20
2021/12/21 11:57:38;;;;;;;3.53;2.33;;;;;;;7.31;40.58;100603.09;5070175;28;20063;-20
2021/12/21 12:00:16;;;;;;;4.43;2.40;;;;;;;7.38;37.47;100593.38;5070032;28;20025;-20
2021/12/21 12:02:42;;;;;;;4.75;2.35;;;;;;;7.21;38.79;100596.25;5070274;28;20524;-20
2021/12/21 12:05:40;;;;;;;5.70;2.45;;;;;;;7.44;36.65;100597.97;5070098;28;20032;-20
2021/12/21 12:08:07;;;;;;;5.32;2.63;;;;;;;7.74;37.58;100587.25;5057704;28;20036;-20
2021/12/21 12:10:34;;;;;;;2.63;1.60;;;;;;;7.19;37.57;100605.38;5069487;28;20549;-21
2021/12/21 12:13:10;;;;;;;3.85;1.77;;;;;;;5.88;39.54;100596.69;5069790;28;20070;-20
2021/12/21 12:15:47;;;;;;;3.70;1.70;;;;;;;5.59;41.79;100607.97;5069742;28;20032;-20
2021/12/21 12:18:27;;;;;;;3.40;1.60;;;;;;;4.78;44.05;100615.97;5069676;28;20036;-20
2021/12/21 12:20:53;;;;;;;4.05;2.10;;;;;;;4.72;45.14;100648.34;5069778;28;20036;-20
2021/12/21 12:23:19;;;;;;;2.95;1.67;;;;;;;4.60;44.46;100602.13;5069939;28;20024;-20
2021/12/21 12:26:03;;;;;;;3.17;2.00;;;;;;;5.04;44.18;100630.78;5069178;28;20042;-20
2021/12/21 12:28:34;;;;;;;4.13;1.85;;;;;;;5.16;42.86;100644.47;5051402;28;20060;-20
2021/12/21 12:31:00;;;;;;;2.50;1.75;;;;;;;5.23;42.88;100633.06;5069766;28;20028;-20
2021/12/21 12:33:39;;;;;;;4.43;2.15;;;;;;;5.50;42.26;100631.00;5069036;28;20101;-21
2021/12/21 12:36:04;;;;;;;4.97;3.00;;;;;;;5.56;43.35;100640.88;5051927;28;20515;-20
2021/12/21 12:38:30;;;;;;;4.97;2.58;;;;;;;5.53;41.96;100643.03;5069424;28;20146;-20
2021/12/21 12:40:58;;;;;;;4.80;2.47;;;;;;;5.33;43.02;100634.66;5069279;28;20591;-21
2021/12/21 12:43:25;;;;;;;19.77;3.67;;;;;;;5.44;42.60;100647.53;5069008;28;20467;-21
2021/12/21 12:45:53;;;;;;;16.17;7.13;;;;;;;5.61;43.33;100654.41;5069006;28;20037;-20
2021/12/21 12:48:32;;;;;;;16.35;7.45;;;;;;;5.47;44.12;100643.72;5069353;28;20043;-20
2021/12/21 12:51:04;;;;;;;15.27;6.43;;;;;;;5.64;44.16;100654.06;5053148;28;20040;-20
2021/12/21 12:53:47;;;;;;;11.77;6.70;;;;;;;6.19;41.63;100651.47;5068939;28;20045;-21
2021/12/21 12:56:14;;;;;;;10.52;6.32;;;;;;;6.36;42.03;100654.88;5069397;28;20046;-20